Time;durP1;ratioP1;P1;durP2;ratioP2;P2;SDS_P1;SDS_P2;PMS_P1;PMS_P2;Temp;Humidity;BMP_temperature;BMP_pressure;BME280_temperature;BME280_humidity;BME280_pressure;Samples;Min_cycle;Max_cycle;Signal;HPM_P1;HPM_P2
2022/07/24 00:01:42;;;;;;;5.90;3.17;;;15.30;99.90;;;;;;5027395;28;20089;-72
2022/07/24 00:04:08;;;;;;;7.80;3.60;;;15.30;99.90;;;;;;5050740;28;20777;-72
2022/07/24 00:06:34;;;;;;;5.00;3.40;;;15.30;99.90;;;;;;5050831;28;21628;-72
2022/07/24 00:09:00;;;;;;;7.45;4.18;;;15.30;99.90;;;;;;5033448;28;20264;-72
2022/07/24 00:11:25;;;;;;;9.60;3.75;;;15.30;99.90;;;;;;5047325;28;20533;-72
2022/07/24 00:13:51;;;;;;;7.15;3.95;;;15.30;99.90;;;;;;5033592;28;20072;-72
2022/07/24 00:16:17;;;;;;;3.72;3.10;;;15.30;99.90;;;;;;5047488;28;20037;-72
2022/07/24 00:18:42;;;;;;;5.20;3.63;;;15.30;99.90;;;;;;5050047;28;21077;-72
2022/07/24 00:21:08;;;;;;;8.13;3.65;;;15.20;99.90;;;;;;5050603;28;20033;-72
2022/07/24 00:23:34;;;;;;;5.97;3.85;;;15.30;99.90;;;;;;5048900;28;20037;-73
2022/07/24 00:26:00;;;;;;;6.95;3.90;;;15.30;99.90;;;;;;5049399;28;20037;-73
2022/07/24 00:28:26;;;;;;;5.57;3.55;;;15.20;99.90;;;;;;5050277;28;20025;-72
2022/07/24 00:30:52;;;;;;;5.97;3.33;;;15.20;99.90;;;;;;5032660;28;20484;-72
2022/07/24 00:33:18;;;;;;;7.63;4.00;;;15.20;99.90;;;;;;5032969;28;20028;-71
2022/07/24 00:35:44;;;;;;;6.28;3.47;;;15.20;99.90;;;;;;5017535;28;20033;-72
2022/07/24 00:38:10;;;;;;;6.45;3.63;;;15.20;99.90;;;;;;5033375;28;20025;-72
2022/07/24 00:40:36;;;;;;;6.57;3.72;;;15.10;99.90;;;;;;5050359;28;20530;-72
2022/07/24 00:43:02;;;;;;;5.80;3.50;;;15.10;99.90;;;;;;5047965;28;20642;-72
2022/07/24 00:45:28;;;;;;;5.35;3.38;;;15.10;99.90;;;;;;5032594;28;20028;-71
2022/07/24 00:47:54;;;;;;;7.82;3.50;;;15.10;99.90;;;;;;5050953;28;20764;-72
2022/07/24 00:50:20;;;;;;;5.93;4.00;;;15.10;99.90;;;;;;5032068;28;20112;-71
2022/07/24 00:52:47;;;;;;;8.95;4.10;;;15.10;99.90;;;;;;5052525;28;20492;-73
2022/07/24 00:55:13;;;;;;;5.32;3.58;;;15.10;99.90;;;;;;5051844;28;20098;-73
2022/07/24 00:57:39;;;;;;;7.28;3.80;;;15.10;99.90;;;;;;5030894;28;20021;-72
2022/07/24 01:00:08;;;;;;;7.90;4.22;;;15.10;99.90;;;;;;5050439;28;20028;-73
2022/07/24 01:02:34;;;;;;;7.03;3.53;;;15.00;99.90;;;;;;5049165;28;20025;-73
2022/07/24 01:05:00;;;;;;;9.63;4.75;;;15.00;99.90;;;;;;5051171;28;20033;-73
2022/07/24 01:07:26;;;;;;;6.65;3.80;;;15.00;99.90;;;;;;5049528;28;20413;-72
2022/07/24 01:09:52;;;;;;;5.45;3.67;;;15.00;99.90;;;;;;5049353;28;20043;-73
2022/07/24 01:12:18;;;;;;;5.00;3.63;;;15.00;99.90;;;;;;5037522;28;20615;-73
2022/07/24 01:14:45;;;;;;;6.07;4.22;;;15.00;99.90;;;;;;5050041;28;20032;-72
2022/07/24 01:17:11;;;;;;;6.00;3.75;;;15.00;99.90;;;;;;5048349;28;20037;-72
2022/07/24 01:19:37;;;;;;;4.25;3.50;;;15.00;99.90;;;;;;5051496;28;20040;-73
2022/07/24 01:22:03;;;;;;;5.97;3.08;;;15.00;99.90;;;;;;5048704;28;20031;-73
2022/07/24 01:24:29;;;;;;;8.00;3.75;;;15.00;99.90;;;;;;5047886;28;20108;-73
2022/07/24 01:26:55;;;;;;;7.45;3.70;;;15.00;99.90;;;;;;5046813;28;20029;-72
2022/07/24 01:29:21;;;;;;;4.70;3.10;;;15.00;99.90;;;;;;5032074;28;20110;-73
2022/07/24 01:31:47;;;;;;;6.40;3.58;;;14.90;99.90;;;;;;5048711;28;20485;-72
2022/07/24 01:34:13;;;;;;;4.95;3.10;;;14.90;99.90;;;;;;5028375;28;20118;-73
2022/07/24 01:36:39;;;;;;;5.90;2.90;;;14.90;99.90;;;;;;5049567;28;20052;-73
2022/07/24 01:39:05;;;;;;;4.07;3.15;;;14.90;99.90;;;;;;5031798;28;20037;-73
2022/07/24 01:41:31;;;;;;;5.00;3.58;;;14.90;99.90;;;;;;5028624;28;20136;-73
2022/07/24 01:43:56;;;;;;;4.03;3.15;;;14.80;99.90;;;;;;5028756;28;20116;-73
2022/07/24 01:46:22;;;;;;;3.78;3.15;;;14.80;99.90;;;;;;5047151;28;20029;-73
2022/07/24 01:48:48;;;;;;;4.65;3.55;;;14.80;99.90;;;;;;5030473;28;20099;-73
2022/07/24 01:51:14;;;;;;;4.78;3.15;;;14.80;99.90;;;;;;5049511;28;20025;-74
2022/07/24 01:53:40;;;;;;;7.38;3.10;;;14.80;99.90;;;;;;5030245;28;20032;-73
2022/07/24 01:56:05;;;;;;;4.70;3.17;;;14.80;99.90;;;;;;5041905;28;20033;-73
2022/07/24 01:58:31;;;;;;;5.63;3.70;;;14.80;99.90;;;;;;5048953;28;20028;-73
2022/07/24 02:00:57;;;;;;;4.22;3.30;;;14.80;99.90;;;;;;5046217;28;20040;-73
2022/07/24 02:03:24;;;;;;;7.50;3.25;;;14.80;99.90;;;;;;5045560;28;20040;-73
2022/07/24 02:05:50;;;;;;;5.60;3.28;;;14.70;99.90;;;;;;5045523;28;20068;-73
2022/07/24 02:08:15;;;;;;;4.57;3.25;;;14.70;99.90;;;;;;5046611;28;20114;-73
2022/07/24 02:10:41;;;;;;;5.45;3.38;;;14.70;99.90;;;;;;5048136;28;20021;-73
2022/07/24 02:13:07;;;;;;;5.63;3.67;;;14.70;99.90;;;;;;5044413;28;20033;-73
2022/07/24 02:15:34;;;;;;;5.45;3.60;;;14.70;99.90;;;;;;5037817;28;20042;-73
2022/07/24 02:18:01;;;;;;;6.63;3.60;;;14.70;99.90;;;;;;5048102;28;20033;-73
2022/07/24 02:20:27;;;;;;;4.22;3.75;;;14.70;99.90;;;;;;5048607;28;20439;-73
2022/07/24 02:22:54;;;;;;;5.15;3.50;;;14.60;99.90;;;;;;5048702;28;20020;-73
2022/07/24 02:25:20;;;;;;;3.85;3.17;;;14.60;99.90;;;;;;5028262;28;20108;-74
2022/07/24 02:27:46;;;;;;;4.85;3.55;;;14.60;99.90;;;;;;5029893;28;20258;-73
2022/07/24 02:30:15;;;;;;;5.95;3.40;;;14.60;99.90;;;;;;5030903;28;20029;-73
2022/07/24 02:32:41;;;;;;;5.13;3.65;;;14.60;99.90;;;;;;5047349;28;20029;-74
2022/07/24 02:35:08;;;;;;;4.97;3.38;;;14.60;99.90;;;;;;5046573;28;20035;-73
2022/07/24 02:37:39;;;;;;;8.32;3.83;;;14.60;99.90;;;;;;5029451;28;20028;-73
2022/07/24 02:40:07;;;;;;;12.13;3.85;;;14.60;99.90;;;;;;5061756;28;20075;-73
2022/07/24 02:42:33;;;;;;;7.35;4.10;;;14.60;99.90;;;;;;5030880;28;20025;-73
2022/07/24 02:44:59;;;;;;;7.13;3.67;;;14.60;99.90;;;;;;5031802;28;20041;-73
2022/07/24 02:47:25;;;;;;;8.50;4.30;;;14.50;99.90;;;;;;5047308;28;20849;-73
2022/07/24 02:49:51;;;;;;;6.00;3.30;;;14.50;99.90;;;;;;5050283;28;20033;-73
2022/07/24 02:52:16;;;;;;;6.85;3.85;;;14.50;99.90;;;;;;5047125;28;20603;-73
2022/07/24 02:54:42;;;;;;;6.47;3.95;;;14.50;99.90;;;;;;5031364;28;20060;-73
2022/07/24 02:57:08;;;;;;;5.28;3.10;;;14.50;99.90;;;;;;5048988;28;20033;-73
2022/07/24 02:59:33;;;;;;;5.90;4.07;;;14.50;99.90;;;;;;5030138;28;20059;-73
2022/07/24 03:01:59;;;;;;;5.90;3.55;;;14.50;99.90;;;;;;5046900;28;20044;-73
2022/07/24 03:04:25;;;;;;;6.10;3.60;;;14.50;99.90;;;;;;5048183;28;20028;-73
2022/07/24 03:06:50;;;;;;;4.70;3.28;;;14.60;99.90;;;;;;5047716;28;20600;-73
2022/07/24 03:09:16;;;;;;;6.72;3.95;;;14.50;99.90;;;;;;5028985;28;20056;-73
2022/07/24 03:11:42;;;;;;;5.40;4.10;;;14.50;99.90;;;;;;5029075;28;20048;-73
2022/07/24 03:14:07;;;;;;;6.55;3.83;;;14.50;99.90;;;;;;5030426;28;20110;-73
2022/07/24 03:16:33;;;;;;;6.75;3.72;;;14.50;99.90;;;;;;5048316;28;20036;-73
2022/07/24 03:18:58;;;;;;;6.10;3.38;;;14.50;99.90;;;;;;5029843;28;20032;-73
2022/07/24 03:21:24;;;;;;;8.90;4.03;;;14.50;99.90;;;;;;5047885;28;20033;-73
2022/07/24 03:23:50;;;;;;;4.75;3.45;;;14.50;99.90;;;;;;5030527;28;20029;-73
2022/07/24 03:26:15;;;;;;;6.18;4.03;;;14.50;99.90;;;;;;5037592;28;20043;-72
2022/07/24 03:28:41;;;;;;;6.75;3.58;;;14.50;99.90;;;;;;5030953;28;20025;-73
2022/07/24 03:31:07;;;;;;;6.22;3.63;;;14.50;99.90;;;;;;5046607;28;20151;-73
2022/07/24 03:33:33;;;;;;;6.68;3.65;;;14.50;99.90;;;;;;5030655;28;20033;-73
2022/07/24 03:35:59;;;;;;;5.07;4.00;;;14.50;99.90;;;;;;5046892;28;20033;-73
2022/07/24 03:38:25;;;;;;;5.53;3.58;;;14.50;99.90;;;;;;5047193;28;20035;-72
2022/07/24 03:40:51;;;;;;;7.20;4.07;;;14.50;99.90;;;;;;5028654;28;20029;-73
2022/07/24 03:43:17;;;;;;;6.50;4.25;;;14.50;99.90;;;;;;5028658;28;20096;-73
2022/07/24 03:45:44;;;;;;;5.07;4.00;;;14.50;99.90;;;;;;5046218;28;20033;-73
2022/07/24 03:48:10;;;;;;;6.07;4.03;;;14.50;99.90;;;;;;5048599;28;20033;-73
2022/07/24 03:50:36;;;;;;;5.10;3.78;;;14.50;99.90;;;;;;5048314;28;20094;-73
2022/07/24 03:53:02;;;;;;;4.88;3.78;;;14.50;99.90;;;;;;5048188;28;20032;-73
2022/07/24 03:55:27;;;;;;;10.35;4.18;;;14.50;99.90;;;;;;5047915;28;20029;-73
2022/07/24 03:57:53;;;;;;;6.10;4.10;;;14.50;99.90;;;;;;5047187;28;20017;-73
2022/07/24 04:00:19;;;;;;;7.07;3.78;;;14.60;99.90;;;;;;5027996;28;20051;-73
2022/07/24 04:02:45;;;;;;;8.50;4.07;;;14.60;99.90;;;;;;5012069;28;20021;-73
2022/07/24 04:05:12;;;;;;;10.15;4.80;;;14.60;99.90;;;;;;5031923;28;20045;-72
2022/07/24 04:07:38;;;;;;;7.85;3.80;;;14.70;99.90;;;;;;5047606;28;20044;-71
2022/07/24 04:10:06;;;;;;;9.20;3.90;;;14.70;99.90;;;;;;5030718;28;20043;-72
2022/07/24 04:12:32;;;;;;;7.93;4.20;;;14.70;99.90;;;;;;5043232;28;20060;-73
2022/07/24 04:14:57;;;;;;;5.70;3.72;;;14.70;99.90;;;;;;5031100;28;20056;-72
2022/07/24 04:17:23;;;;;;;6.15;3.58;;;14.80;99.90;;;;;;5046181;28;20037;-72
2022/07/24 04:19:49;;;;;;;6.35;3.70;;;14.70;99.90;;;;;;5048594;28;20409;-72
2022/07/24 04:22:14;;;;;;;6.70;3.60;;;14.70;99.90;;;;;;5046238;28;20031;-71
2022/07/24 04:24:40;;;;;;;5.10;3.05;;;14.70;99.90;;;;;;5030219;28;20043;-72
2022/07/24 04:27:06;;;;;;;6.80;3.35;;;14.80;99.90;;;;;;5047306;28;20108;-72
2022/07/24 04:29:31;;;;;;;5.50;3.05;;;14.80;99.90;;;;;;5030326;28;20032;-72
2022/07/24 04:31:58;;;;;;;5.22;3.08;;;14.70;99.90;;;;;;5046193;28;20033;-72
2022/07/24 04:34:23;;;;;;;5.72;3.00;;;14.70;99.90;;;;;;5046424;28;20031;-72
2022/07/24 04:36:50;;;;;;;5.45;3.25;;;14.80;99.90;;;;;;5047157;28;20029;-72
2022/07/24 04:39:15;;;;;;;7.68;3.28;;;14.80;99.90;;;;;;5031222;28;20044;-72
2022/07/24 04:41:41;;;;;;;4.10;2.83;;;14.80;99.90;;;;;;5044876;28;20550;-72
2022/07/24 04:44:07;;;;;;;4.45;2.97;;;14.80;99.90;;;;;;5042062;28;20120;-72
2022/07/24 04:46:33;;;;;;;7.25;3.50;;;14.80;99.90;;;;;;5047945;28;20135;-72
2022/07/24 04:48:58;;;;;;;4.97;3.55;;;14.80;99.90;;;;;;5048851;28;20033;-72
2022/07/24 04:51:24;;;;;;;6.55;3.65;;;14.80;99.90;;;;;;5048217;28;20029;-72
2022/07/24 04:53:52;;;;;;;4.95;3.40;;;14.80;99.90;;;;;;5050035;28;20029;-72
2022/07/24 04:56:19;;;;;;;7.15;3.58;;;14.80;99.90;;;;;;5050300;28;20065;-73
2022/07/24 04:58:45;;;;;;;6.97;3.70;;;14.90;99.90;;;;;;5032861;28;20120;-72
2022/07/24 05:01:11;;;;;;;4.55;3.08;;;14.90;99.90;;;;;;5030962;28;20481;-72
2022/07/24 05:03:37;;;;;;;5.30;3.15;;;14.90;99.90;;;;;;5031357;28;20044;-72
2022/07/24 05:06:03;;;;;;;5.40;3.15;;;14.90;99.90;;;;;;5048650;28;20029;-72
2022/07/24 05:08:28;;;;;;;4.78;2.80;;;15.00;99.90;;;;;;5032446;28;20047;-73
2022/07/24 05:10:54;;;;;;;5.57;3.30;;;15.00;99.90;;;;;;5048413;28;20059;-73
2022/07/24 05:13:20;;;;;;;4.20;3.10;;;15.00;99.90;;;;;;5050251;28;20033;-73
2022/07/24 05:15:46;;;;;;;4.57;3.25;;;15.10;99.90;;;;;;5030380;28;20033;-73
2022/07/24 05:18:11;;;;;;;3.40;2.70;;;15.10;99.90;;;;;;5049990;28;20029;-73
2022/07/24 05:20:37;;;;;;;7.57;3.15;;;15.20;99.90;;;;;;5032773;28;20591;-72
2022/07/24 05:23:03;;;;;;;4.30;2.72;;;15.20;99.90;;;;;;5015203;28;20029;-73
2022/07/24 05:25:29;;;;;;;2.60;2.20;;;15.20;99.90;;;;;;5030840;28;20037;-72
2022/07/24 05:27:54;;;;;;;6.63;2.88;;;15.30;99.90;;;;;;5032873;28;20096;-72
2022/07/24 05:30:20;;;;;;;4.65;2.60;;;15.30;99.90;;;;;;5050021;28;20021;-73
2022/07/24 05:32:46;;;;;;;4.13;2.65;;;15.40;99.90;;;;;;5033184;28;20572;-73
2022/07/24 05:35:12;;;;;;;4.03;2.83;;;15.40;99.90;;;;;;5048502;28;20082;-73
2022/07/24 05:37:38;;;;;;;2.80;2.28;;;15.40;99.90;;;;;;5033988;28;20029;-73
2022/07/24 05:40:04;;;;;;;8.63;2.90;;;15.50;99.90;;;;;;5051251;28;20895;-73
2022/07/24 05:42:30;;;;;;;6.40;2.47;;;15.50;99.90;;;;;;5047497;28;20619;-73
2022/07/24 05:44:56;;;;;;;3.67;2.47;;;15.50;99.90;;;;;;5030569;28;20029;-73
2022/07/24 05:47:21;;;;;;;4.78;2.67;;;15.60;99.90;;;;;;5048507;28;20021;-73
2022/07/24 05:49:47;;;;;;;5.50;2.47;;;15.60;99.90;;;;;;5030887;28;20151;-73
2022/07/24 05:52:13;;;;;;;3.75;2.58;;;15.70;99.90;;;;;;5036188;28;20029;-75
2022/07/24 05:54:38;;;;;;;4.22;2.65;;;15.70;99.90;;;;;;5032084;28;20611;-73
2022/07/24 05:57:05;;;;;;;3.67;2.67;;;15.80;99.90;;;;;;5048311;28;20036;-73
2022/07/24 05:59:30;;;;;;;3.63;2.50;;;15.80;99.90;;;;;;5047649;28;20025;-73
2022/07/24 06:01:56;;;;;;;3.83;2.70;;;15.90;99.90;;;;;;5046148;28;20485;-73
2022/07/24 06:04:22;;;;;;;3.28;2.20;;;15.90;99.90;;;;;;5029938;28;20060;-73
2022/07/24 06:06:47;;;;;;;5.10;2.40;;;16.00;99.90;;;;;;5031543;28;20493;-73
2022/07/24 06:09:13;;;;;;;4.20;2.08;;;16.10;99.90;;;;;;5048443;28;20033;-73
2022/07/24 06:11:39;;;;;;;5.80;2.65;;;16.10;99.90;;;;;;5028411;28;20028;-73
2022/07/24 06:14:04;;;;;;;3.78;2.10;;;16.20;99.90;;;;;;5047206;28;20111;-73
2022/07/24 06:16:30;;;;;;;4.43;2.45;;;16.20;99.90;;;;;;5028704;28;20033;-73
2022/07/24 06:18:56;;;;;;;3.08;2.30;;;16.30;99.90;;;;;;5049886;28;20028;-73
2022/07/24 06:21:22;;;;;;;3.70;2.35;;;16.40;99.90;;;;;;5031786;28;20082;-72
2022/07/24 06:23:48;;;;;;;3.47;2.50;;;16.40;99.90;;;;;;5049046;28;20040;-73
2022/07/24 06:26:13;;;;;;;2.78;2.20;;;16.40;99.90;;;;;;5031989;28;20036;-73
2022/07/24 06:28:39;;;;;;;4.07;2.55;;;16.50;99.90;;;;;;5046753;28;20036;-72
2022/07/24 06:31:05;;;;;;;4.35;2.25;;;16.50;99.90;;;;;;5047956;28;20560;-73
2022/07/24 06:33:31;;;;;;;4.78;2.20;;;16.50;99.90;;;;;;5048499;28;20051;-73
2022/07/24 06:35:56;;;;;;;3.33;2.10;;;16.60;99.90;;;;;;5030148;28;20495;-74
2022/07/24 06:38:22;;;;;;;4.97;2.20;;;16.60;99.90;;;;;;5047219;28;20033;-73
2022/07/24 06:40:48;;;;;;;3.58;2.15;;;16.70;99.90;;;;;;5032048;28;20084;-73
2022/07/24 06:43:15;;;;;;;2.70;2.17;;;16.70;99.90;;;;;;5014160;28;20531;-72
2022/07/24 06:45:42;;;;;;;3.85;2.42;;;16.80;99.90;;;;;;5046471;28;20029;-73
2022/07/24 06:48:08;;;;;;;2.47;2.17;;;16.80;99.90;;;;;;5027529;28;20044;-73
2022/07/24 06:50:34;;;;;;;4.30;2.45;;;16.80;99.90;;;;;;5048655;28;20033;-73
2022/07/24 06:53:00;;;;;;;5.13;2.40;;;16.90;99.90;;;;;;5047730;28;20029;-72
2022/07/24 06:55:26;;;;;;;3.47;2.40;;;16.90;99.90;;;;;;5031142;28;20075;-73
2022/07/24 06:57:52;;;;;;;2.67;2.20;;;17.00;99.90;;;;;;5029016;28;20033;-73
2022/07/24 07:00:18;;;;;;;5.93;2.20;;;17.00;99.90;;;;;;5050002;28;20055;-72
2022/07/24 07:02:45;;;;;;;4.70;2.20;;;17.10;99.90;;;;;;5013168;28;20057;-73
2022/07/24 07:05:11;;;;;;;4.38;2.10;;;17.20;99.90;;;;;;5046379;28;20039;-73
2022/07/24 07:07:37;;;;;;;4.53;2.05;;;17.20;99.90;;;;;;5031172;28;20033;-73
2022/07/24 07:10:05;;;;;;;5.03;1.83;;;17.30;99.90;;;;;;5048617;28;20083;-73
2022/07/24 07:12:30;;;;;;;2.72;1.92;;;17.40;99.90;;;;;;5048057;28;20033;-73
2022/07/24 07:14:58;;;;;;;2.70;1.80;;;17.50;99.90;;;;;;5028946;28;20024;-72
2022/07/24 07:17:24;;;;;;;2.25;1.95;;;17.50;99.90;;;;;;5044670;28;20485;-72
2022/07/24 07:19:49;;;;;;;3.13;2.03;;;17.60;99.90;;;;;;5045881;28;20043;-72
2022/07/24 07:22:15;;;;;;;5.07;1.95;;;17.60;99.90;;;;;;5046779;28;20031;-72
2022/07/24 07:24:41;;;;;;;3.03;1.83;;;17.70;99.90;;;;;;5029810;28;20042;-73
2022/07/24 07:27:06;;;;;;;2.88;2.00;;;17.70;99.90;;;;;;5029391;28;20576;-73
2022/07/24 07:29:32;;;;;;;4.47;2.28;;;17.80;99.90;;;;;;5049736;28;20048;-73
2022/07/24 07:31:58;;;;;;;3.90;2.20;;;17.90;99.90;;;;;;5049374;28;20655;-73
2022/07/24 07:34:24;;;;;;;3.13;2.00;;;17.90;99.90;;;;;;5045986;28;20524;-73
2022/07/24 07:36:49;;;;;;;1.60;1.50;;;18.00;99.90;;;;;;5029033;28;20017;-73
2022/07/24 07:39:15;;;;;;;4.45;1.90;;;18.00;99.90;;;;;;5031298;28;20029;-72
2022/07/24 07:41:41;;;;;;;2.90;1.90;;;18.10;99.90;;;;;;5030130;28;20025;-74
2022/07/24 07:44:06;;;;;;;3.35;2.20;;;18.10;99.90;;;;;;5046285;28;20040;-73
2022/07/24 07:46:32;;;;;;;4.05;1.83;;;18.20;99.90;;;;;;5030701;28;20024;-73
2022/07/24 07:48:58;;;;;;;3.72;1.75;;;18.30;99.90;;;;;;5031309;28;20508;-73
2022/07/24 07:51:24;;;;;;;2.40;2.03;;;18.30;99.90;;;;;;5046828;28;20105;-73
2022/07/24 07:53:49;;;;;;;2.17;1.95;;;18.40;99.90;;;;;;5046825;28;20033;-73
2022/07/24 07:56:18;;;;;;;3.97;2.28;;;18.50;99.90;;;;;;5029756;28;20627;-73
2022/07/24 07:58:44;;;;;;;4.25;1.95;;;18.60;99.90;;;;;;5028434;28;20079;-74
2022/07/24 08:01:09;;;;;;;3.65;1.98;;;18.70;99.90;;;;;;5030591;28;20497;-73
2022/07/24 08:03:35;;;;;;;2.22;1.52;;;18.70;99.90;;;;;;5030519;28;20040;-73
2022/07/24 08:06:01;;;;;;;3.47;2.08;;;18.80;99.90;;;;;;5028520;28;20117;-73
2022/07/24 08:08:26;;;;;;;4.47;2.42;;;18.80;99.90;;;;;;5045064;28;20443;-75
2022/07/24 08:10:53;;;;;;;6.75;2.10;;;18.90;99.90;;;;;;5028668;28;20024;-72
2022/07/24 08:13:19;;;;;;;5.63;1.98;;;19.00;99.90;;;;;;5025661;28;20036;-71
2022/07/24 08:15:45;;;;;;;2.60;2.08;;;19.00;99.90;;;;;;5045198;28;20029;-73
2022/07/24 08:18:11;;;;;;;5.10;2.38;;;19.10;99.90;;;;;;5027033;28;20118;-73
2022/07/24 08:20:37;;;;;;;2.40;1.80;;;19.10;99.90;;;;;;5006975;28;20044;-73
2022/07/24 08:23:03;;;;;;;2.72;2.10;;;19.20;99.90;;;;;;5044882;28;20029;-73
2022/07/24 08:25:29;;;;;;;8.07;2.28;;;19.40;99.90;;;;;;5025548;28;20115;-72
2022/07/24 08:27:54;;;;;;;3.45;2.30;;;19.40;99.90;;;;;;5045622;28;20396;-72
2022/07/24 08:30:21;;;;;;;3.28;2.08;;;19.50;99.90;;;;;;5027860;28;20455;-71
2022/07/24 08:32:47;;;;;;;3.72;2.35;;;19.60;99.90;;;;;;5043261;28;20037;-72
2022/07/24 08:35:15;;;;;;;4.15;2.08;;;19.70;99.90;;;;;;5045354;28;20025;-72
2022/07/24 08:37:41;;;;;;;4.38;2.00;;;19.80;99.90;;;;;;5042207;28;20397;-71
2022/07/24 08:40:08;;;;;;;6.40;2.28;;;19.90;99.90;;;;;;5031977;28;20041;-71
2022/07/24 08:42:35;;;;;;;4.57;2.17;;;19.90;99.90;;;;;;5047229;28;20047;-73
2022/07/24 08:45:02;;;;;;;2.55;1.67;;;20.10;99.90;;;;;;5046418;28;20043;-72
2022/07/24 08:47:29;;;;;;;3.90;2.38;;;20.20;99.90;;;;;;5048973;28;20116;-75
2022/07/24 08:49:57;;;;;;;5.75;2.58;;;20.30;99.90;;;;;;5033482;28;20040;-74
2022/07/24 08:52:24;;;;;;;2.20;1.80;;;20.40;99.90;;;;;;5034578;28;20029;-74
2022/07/24 08:54:50;;;;;;;3.30;2.03;;;20.40;99.90;;;;;;5025302;28;20135;-76
2022/07/24 08:57:17;;;;;;;2.97;2.30;;;20.50;99.90;;;;;;5030379;28;20099;-74
2022/07/24 08:59:42;;;;;;;3.05;2.00;;;20.60;99.90;;;;;;5045571;28;20036;-73
2022/07/24 09:02:08;;;;;;;4.40;2.38;;;20.60;99.90;;;;;;5051359;28;20523;-74
2022/07/24 09:04:38;;;;;;;3.88;2.65;;;20.70;99.90;;;;;;5031535;28;20033;-74
2022/07/24 09:07:10;;;;;;;3.38;2.13;;;20.80;99.90;;;;;;5014189;28;20029;-73
2022/07/24 09:09:38;;;;;;;4.47;2.17;;;20.80;99.90;;;;;;5048790;28;20584;-73
2022/07/24 09:12:09;;;;;;;3.80;2.40;;;20.90;99.90;;;;;;5048527;28;20037;-74
2022/07/24 09:14:39;;;;;;;4.15;2.60;;;21.10;99.90;;;;;;5029656;28;20712;-74
2022/07/24 09:17:07;;;;;;;2.88;2.30;;;21.20;99.90;;;;;;5048742;28;20037;-74
2022/07/24 09:19:56;;;;;;;3.97;2.10;;;21.30;99.90;;;;;;5043432;28;20052;-73
2022/07/24 09:22:34;;;;;;;3.13;2.00;;;21.40;99.90;;;;;;5050769;28;20131;-74
2022/07/24 09:25:10;;;;;;;4.63;2.10;;;21.60;99.90;;;;;;5047530;28;20036;-75
2022/07/24 09:27:38;;;;;;;4.53;2.30;;;21.70;99.90;;;;;;5050387;28;20032;-73
2022/07/24 09:30:05;;;;;;;2.58;2.25;;;21.80;99.90;;;;;;5032432;28;20497;-74
2022/07/24 09:32:31;;;;;;;3.15;1.92;;;21.90;99.90;;;;;;5029667;28;20115;-75
2022/07/24 09:34:57;;;;;;;4.20;2.58;;;22.00;99.90;;;;;;5047210;28;20107;-74
2022/07/24 09:37:26;;;;;;;2.30;1.92;;;22.00;99.90;;;;;;5049481;28;20527;-74
2022/07/24 09:40:05;;;;;;;3.33;2.20;;;22.00;99.90;;;;;;5050758;28;20107;-75
2022/07/24 09:42:38;;;;;;;4.70;2.30;;;22.10;99.90;;;;;;5045816;28;20112;-74
2022/07/24 09:45:07;;;;;;;4.13;2.42;;;22.30;99.60;;;;;;5042095;28;20033;-75
2022/07/24 09:47:35;;;;;;;2.10;1.75;;;22.30;99.90;;;;;;5047091;28;20029;-72
2022/07/24 09:50:15;;;;;;;2.10;1.90;;;22.50;99.80;;;;;;5031928;28;20035;-73
2022/07/24 09:52:43;;;;;;;4.05;2.47;;;22.50;99.90;;;;;;5047640;28;20068;-74
2022/07/24 09:55:23;;;;;;;2.70;2.15;;;22.60;99.20;;;;;;5017230;28;20033;-74
2022/07/24 09:57:49;;;;;;;4.17;2.37;;;22.90;98.90;;;;;;5027162;28;20022;-73
2022/07/24 10:00:16;;;;;;;3.55;2.38;;;23.10;98.10;;;;;;5050946;28;20055;-72
2022/07/24 10:02:43;;;;;;;5.65;3.13;;;23.30;98.20;;;;;;5030661;28;20025;-74
2022/07/24 10:05:11;;;;;;;3.13;2.28;;;23.40;97.00;;;;;;5011579;28;20215;-74
2022/07/24 10:07:38;;;;;;;3.92;2.95;;;23.40;97.40;;;;;;5043574;28;20111;-75
2022/07/24 10:10:04;;;;;;;4.82;3.00;;;23.50;97.20;;;;;;5025899;28;20460;-73
2022/07/24 10:12:31;;;;;;;4.15;2.40;;;23.60;96.60;;;;;;5027273;28;20116;-73
2022/07/24 10:14:59;;;;;;;4.45;2.53;;;23.60;96.80;;;;;;5033566;28;20029;-73
2022/07/24 10:18:03;;;;;;;4.88;2.90;;;23.60;97.00;;;;;;5034362;28;20905;-73
2022/07/24 10:20:40;;;;;;;5.05;2.55;;;23.60;96.30;;;;;;5049043;28;20025;-73
2022/07/24 10:23:07;;;;;;;4.05;3.33;;;23.50;96.10;;;;;;5044035;28;20029;-73
2022/07/24 10:26:05;;;;;;;5.25;3.35;;;23.60;95.90;;;;;;5048174;28;20029;-73
2022/07/24 10:28:42;;;;;;;5.93;3.70;;;23.60;95.80;;;;;;5047585;28;20519;-73
2022/07/24 10:31:15;;;;;;;5.75;3.80;;;23.50;94.30;;;;;;5026581;28;20032;-73
2022/07/24 10:33:45;;;;;;;3.78;2.92;;;23.50;94.10;;;;;;5045705;28;20033;-72
2022/07/24 10:36:24;;;;;;;5.22;3.35;;;23.60;94.50;;;;;;5042853;28;21218;-78
2022/07/24 10:39:08;;;;;;;4.28;3.55;;;23.60;94.60;;;;;;5017107;28;20025;-78
2022/07/24 10:41:34;;;;;;;6.00;3.72;;;23.70;95.00;;;;;;5050206;28;20029;-78
2022/07/24 10:44:19;;;;;;;5.95;3.50;;;23.80;94.00;;;;;;5033893;28;20519;-78
2022/07/24 10:47:07;;;;;;;6.15;3.83;;;23.80;94.20;;;;;;5031133;28;20329;-79
2022/07/24 10:49:40;;;;;;;5.13;3.65;;;23.90;93.80;;;;;;5025412;28;20055;-77
2022/07/24 10:52:06;;;;;;;4.35;3.58;;;24.00;94.00;;;;;;5048258;28;20036;-77
2022/07/24 10:54:31;;;;;;;5.97;3.55;;;24.10;94.60;;;;;;5047269;28;20029;-78
2022/07/24 10:56:57;;;;;;;5.65;4.15;;;24.20;94.50;;;;;;5031122;28;20079;-77
2022/07/24 10:59:41;;;;;;;6.43;3.85;;;24.30;93.20;;;;;;5054125;28;20037;-79
2022/07/24 11:02:27;;;;;;;3.97;3.28;;;24.30;93.30;;;;;;5050123;28;20564;-77
2022/07/24 11:05:29;;;;;;;4.13;3.35;;;24.50;93.70;;;;;;5047964;28;20036;-76
2022/07/24 11:08:29;;;;;;;5.70;3.60;;;24.60;93.70;;;;;;5041896;28;20032;-77
2022/07/24 11:10:59;;;;;;;5.50;3.45;;;24.60;93.90;;;;;;5031620;28;20100;-77
2022/07/24 11:13:34;;;;;;;9.43;3.83;;;24.60;93.80;;;;;;5014355;28;20085;-78
2022/07/24 11:16:15;;;;;;;6.00;3.80;;;24.70;93.50;;;;;;5037232;28;20076;-78
2022/07/24 11:18:50;;;;;;;7.18;4.15;;;24.90;93.40;;;;;;5051778;28;20029;-78
2022/07/24 11:21:37;;;;;;;6.60;4.30;;;25.00;93.00;;;;;;5028339;28;20032;-77
2022/07/24 11:24:21;;;;;;;4.65;4.18;;;25.10;92.70;;;;;;5055625;28;20064;-79
2022/07/24 11:26:53;;;;;;;5.85;4.05;;;25.30;91.80;;;;;;5032834;28;20021;-77
2022/07/24 11:29:27;;;;;;;6.93;3.95;;;25.50;91.60;;;;;;5039835;28;20037;-77
2022/07/24 11:32:20;;;;;;;5.05;3.70;;;25.80;92.10;;;;;;5050285;28;20032;-82
2022/07/24 11:34:49;;;;;;;5.00;3.80;;;26.30;90.50;;;;;;5020810;28;20116;-78
2022/07/24 11:37:15;;;;;;;5.50;4.10;;;26.90;88.20;;;;;;5050547;28;20492;-80
2022/07/24 11:39:44;;;;;;;5.03;3.53;;;27.50;87.10;;;;;;5017493;28;20021;-79
2022/07/24 11:42:12;;;;;;;5.03;3.40;;;28.60;83.50;;;;;;5029345;28;20400;-76
2022/07/24 11:44:49;;;;;;;5.00;3.55;;;29.50;79.80;;;;;;5030888;28;20025;-77
2022/07/24 11:47:16;;;;;;;5.35;3.53;;;30.50;74.00;;;;;;5030437;28;20037;-76
2022/07/24 11:49:52;;;;;;;6.63;3.88;;;31.00;70.40;;;;;;5046569;28;20504;-76
2022/07/24 11:52:39;;;;;;;7.53;4.28;;;31.20;67.50;;;;;;5048185;28;20126;-79
2022/07/24 11:55:12;;;;;;;4.35;3.65;;;30.30;66.40;;;;;;5046372;28;20045;-81
2022/07/24 11:57:40;;;;;;;4.78;3.97;;;29.40;66.90;;;;;;5047418;28;20504;-76
2022/07/24 12:00:12;;;;;;;5.28;3.75;;;28.60;68.50;;;;;;5013037;28;20053;-76
2022/07/24 12:02:50;;;;;;;4.78;3.72;;;28.10;72.10;;;;;;5054353;28;20021;-79
2022/07/24 12:05:30;;;;;;;5.55;4.10;;;27.80;75.00;;;;;;5055163;28;20039;-78
2022/07/24 12:07:59;;;;;;;6.90;4.07;;;27.60;74.30;;;;;;5033525;28;20151;-79
2022/07/24 12:10:26;;;;;;;6.50;4.30;;;27.40;72.60;;;;;;5040106;28;20063;-79
2022/07/24 12:12:53;;;;;;;4.90;4.20;;;27.30;76.80;;;;;;5030161;28;20402;-77
2022/07/24 12:15:20;;;;;;;6.13;4.03;;;27.20;78.20;;;;;;5021481;28;20112;-80
2022/07/24 12:18:07;;;;;;;5.20;3.85;;;27.40;77.10;;;;;;5038938;28;20024;-78
2022/07/24 12:20:39;;;;;;;5.53;4.20;;;27.40;78.80;;;;;;5056131;28;20033;-80
2022/07/24 12:23:12;;;;;;;9.38;4.13;;;27.30;75.80;;;;;;5059826;28;20033;-78
2022/07/24 12:25:39;;;;;;;8.82;4.22;;;27.30;77.40;;;;;;5034165;28;20033;-77
2022/07/24 12:28:15;;;;;;;5.88;4.03;;;27.40;74.30;;;;;;5038874;28;20487;-79
2022/07/24 12:30:54;;;;;;;4.22;3.80;;;27.40;75.30;;;;;;5052456;28;20123;-75
2022/07/24 12:33:22;;;;;;;5.88;4.72;;;27.40;74.30;;;;;;5035072;28;20021;-78
2022/07/24 12:35:59;;;;;;;9.07;4.40;;;27.40;74.50;;;;;;5020211;28;20029;-77
2022/07/24 12:38:34;;;;;;;4.40;4.00;;;27.50;75.30;;;;;;5037347;28;20033;-77
2022/07/24 12:41:08;;;;;;;4.72;4.10;;;27.50;74.20;;;;;;5054941;28;20028;-81
2022/07/24 12:44:00;;;;;;;4.88;3.80;;;27.60;73.80;;;;;;5019669;28;20029;-78
2022/07/24 12:46:33;;;;;;;6.10;4.13;;;27.60;75.10;;;;;;5030932;28;20112;-77
2022/07/24 12:49:08;;;;;;;5.55;4.07;;;27.60;76.60;;;;;;5052197;28;20536;-77
2022/07/24 12:51:52;;;;;;;5.68;4.47;;;27.70;75.60;;;;;;5018327;28;20198;-78